Time;durP1;ratioP1;P1;durP2;ratioP2;P2;SDS_P1;SDS_P2;PMS_P1;PMS_P2;Temp;Humidity;BMP_temperature;BMP_pressure;BME280_temperature;BME280_humidity;BME280_pressure;Samples;Min_cycle;Max_cycle;Signal;HPM_P1;HPM_P2
2020/12/24 00:01:11;;;;;;;;;;;9.40;99.90;;;;;;5054140;28;19992;-81
2020/12/24 00:03:36;;;;;;;;;;;9.40;99.90;;;;;;5063140;28;19913;-81
2020/12/24 00:06:02;;;;;;;;;;;9.40;99.90;;;;;;5073476;28;19927;-80
2020/12/24 00:08:27;;;;;;;;;;;9.50;99.90;;;;;;5057336;28;19909;-80
2020/12/24 00:10:53;;;;;;;;;;;9.40;99.90;;;;;;5058789;28;19909;-80
2020/12/24 00:13:18;;;;;;;;;;;9.40;99.90;;;;;;5059814;28;19921;-80
2020/12/24 00:15:44;;;;;;;;;;;9.40;99.90;;;;;;5078458;28;19908;-80
2020/12/24 00:18:09;;;;;;;;;;;9.40;99.90;;;;;;5057043;28;19965;-80
2020/12/24 00:20:34;;;;;;;;;;;9.40;99.90;;;;;;5057530;28;19917;-80
2020/12/24 00:23:00;;;;;;;;;;;9.40;99.90;;;;;;5058011;28;20378;-81
2020/12/24 00:25:26;;;;;;;;;;;9.40;99.90;;;;;;5058898;28;19909;-80
2020/12/24 00:27:51;;;;;;;;;;;9.40;99.90;;;;;;5058965;28;19999;-81
2020/12/24 00:30:17;;;;;;;;;;;9.40;99.90;;;;;;5071669;28;19915;-80
2020/12/24 00:32:43;;;;;;;;;;;9.40;99.90;;;;;;5077378;28;19920;-79
2020/12/24 00:35:08;;;;;;;;;;;9.40;99.90;;;;;;5066193;28;20016;-81
2020/12/24 00:37:34;;;;;;;;;;;9.40;99.90;;;;;;5065991;28;19955;-81
2020/12/24 00:39:59;;;;;;;;;;;9.50;99.90;;;;;;5072671;28;19919;-81
2020/12/24 00:42:25;;;;;;;;;;;9.50;99.90;;;;;;5050758;28;20368;-81
2020/12/24 00:44:50;;;;;;;;;;;9.50;99.90;;;;;;5063053;28;19920;-81
2020/12/24 00:47:16;;;;;;;;;;;9.50;99.90;;;;;;5057623;28;19908;-81
2020/12/24 00:49:41;;;;;;;;;;;9.50;99.90;;;;;;5063772;28;20304;-80
2020/12/24 00:52:06;;;;;;;;;;;9.50;99.90;;;;;;5055716;28;20414;-81
2020/12/24 00:54:32;;;;;;;;;;;9.50;99.90;;;;;;5040537;28;20567;-81
2020/12/24 00:56:58;;;;;;;;;;;9.50;99.90;;;;;;5039554;28;19909;-80
2020/12/24 00:59:23;;;;;;;;;;;9.50;99.90;;;;;;5067493;28;19912;-80
2020/12/24 01:01:49;;;;;;;;;;;9.50;99.90;;;;;;5057114;28;19913;-81
2020/12/24 01:04:14;;;;;;;;;;;9.50;99.90;;;;;;5067646;28;19913;-80
2020/12/24 01:06:40;;;;;;;;;;;9.50;99.90;;;;;;5061547;28;19936;-81
2020/12/24 01:09:05;;;;;;;;;;;9.50;99.90;;;;;;5046760;28;19943;-81
2020/12/24 01:11:31;;;;;;;;;;;9.50;99.90;;;;;;5064577;28;19920;-81
2020/12/24 01:13:57;;;;;;;;;;;9.40;99.90;;;;;;5079627;28;19912;-80
2020/12/24 01:16:22;;;;;;;;;;;9.40;99.90;;;;;;5075492;28;19913;-80
2020/12/24 01:18:48;;;;;;;;;;;9.40;99.90;;;;;;5060918;28;19940;-81
2020/12/24 01:21:13;;;;;;;;;;;9.40;99.90;;;;;;5063870;28;19980;-81
2020/12/24 01:23:39;;;;;;;;;;;9.40;99.90;;;;;;5080455;28;19958;-80
2020/12/24 01:26:07;;;;;;;;;;;9.40;99.90;;;;;;5045917;28;20016;-81
2020/12/24 01:28:33;;;;;;;;;;;9.40;99.90;;;;;;5060477;28;20281;-81
2020/12/24 01:30:59;;;;;;;;;;;9.40;99.90;;;;;;5062503;28;19912;-81
2020/12/24 01:33:25;;;;;;;;;;;9.40;99.90;;;;;;5060631;28;19909;-81
2020/12/24 01:35:50;;;;;;;;;;;9.40;99.90;;;;;;5064458;28;19920;-81
2020/12/24 01:38:16;;;;;;;;;;;9.40;99.90;;;;;;5060347;28;19909;-81
2020/12/24 01:40:41;;;;;;;;;;;9.40;99.90;;;;;;5070462;28;19927;-81
2020/12/24 01:43:07;;;;;;;;;;;9.40;99.90;;;;;;5067794;28;19913;-81
2020/12/24 01:45:33;;;;;;;;;;;9.40;99.90;;;;;;5060918;28;19984;-80
2020/12/24 01:47:58;;;;;;;;;;;9.40;99.90;;;;;;5060357;28;20402;-80
2020/12/24 01:50:24;;;;;;;;;;;9.30;99.90;;;;;;5065310;28;19952;-81
2020/12/24 01:52:50;;;;;;;;;;;9.30;99.90;;;;;;5059937;28;19916;-81
2020/12/24 01:55:16;;;;;;;;;;;9.30;99.90;;;;;;5064387;28;19927;-81
2020/12/24 01:57:42;;;;;;;;;;;9.30;99.90;;;;;;5078931;28;19917;-80
2020/12/24 02:00:08;;;;;;;;;;;9.30;99.90;;;;;;5070719;28;19923;-80
2020/12/24 02:02:33;;;;;;;;;;;9.30;99.90;;;;;;5060137;28;19916;-81
2020/12/24 02:04:59;;;;;;;;;;;9.30;99.90;;;;;;5048966;28;19913;-81
2020/12/24 02:07:24;;;;;;;;;;;9.30;99.90;;;;;;5060177;28;19912;-81
2020/12/24 02:09:50;;;;;;;;;;;9.30;99.90;;;;;;5072133;28;19999;-81
2020/12/24 02:12:17;;;;;;;;;;;9.30;99.90;;;;;;5070316;28;19912;-81
2020/12/24 02:14:42;;;;;;;;;;;9.30;99.90;;;;;;5074727;28;20352;-81
2020/12/24 02:17:08;;;;;;;;;;;9.30;99.90;;;;;;5066843;28;19943;-81
2020/12/24 02:19:34;;;;;;;;;;;9.30;99.90;;;;;;5064610;28;20391;-81
2020/12/24 02:21:59;;;;;;;;;;;9.30;99.90;;;;;;5069129;28;19917;-81
2020/12/24 02:24:25;;;;;;;;;;;9.30;99.90;;;;;;5064962;28;19982;-81
2020/12/24 02:26:50;;;;;;;;;;;9.20;99.90;;;;;;5071517;28;19921;-81
2020/12/24 02:29:16;;;;;;;;;;;9.20;99.90;;;;;;5060791;28;20408;-81
2020/12/24 02:31:42;;;;;;;;;;;9.10;99.90;;;;;;5059148;28;20293;-81
2020/12/24 02:34:07;;;;;;;;;;;9.00;99.90;;;;;;5061689;28;19916;-80
2020/12/24 02:36:33;;;;;;;;;;;9.00;99.90;;;;;;5058379;28;19912;-81
2020/12/24 02:38:59;;;;;;;;;;;8.90;99.90;;;;;;5077374;28;19916;-81
2020/12/24 02:41:24;;;;;;;;;;;8.90;99.90;;;;;;5059152;28;20274;-81
2020/12/24 02:43:50;;;;;;;;;;;8.90;99.90;;;;;;5058891;28;19915;-81
2020/12/24 02:46:15;;;;;;;;;;;8.90;99.90;;;;;;5063632;28;19928;-81
2020/12/24 02:48:41;;;;;;;;;;;8.90;99.90;;;;;;5058888;28;19909;-81
2020/12/24 02:51:08;;;;;;;;;;;8.90;99.90;;;;;;5062731;28;19979;-80
2020/12/24 02:53:33;;;;;;;;;;;8.90;99.90;;;;;;5071042;28;19912;-81
2020/12/24 02:55:59;;;;;;;;;;;8.80;99.90;;;;;;5059101;28;20046;-80
2020/12/24 02:58:24;;;;;;;;;;;8.90;99.90;;;;;;5071734;28;19939;-81
2020/12/24 03:00:50;;;;;;;;;;;8.80;99.90;;;;;;5061188;28;20008;-81
2020/12/24 03:03:16;;;;;;;;;;;8.80;99.90;;;;;;5059776;28;19913;-80
2020/12/24 03:05:42;;;;;;;;;;;8.80;99.90;;;;;;5071161;28;20327;-81
2020/12/24 03:08:07;;;;;;;;;;;8.80;99.90;;;;;;5070077;28;19966;-81
2020/12/24 03:10:33;;;;;;;;;;;8.80;99.90;;;;;;5060397;28;20012;-81
2020/12/24 03:12:58;;;;;;;;;;;8.80;99.90;;;;;;5056954;28;20269;-81
2020/12/24 03:15:24;;;;;;;;;;;8.80;99.90;;;;;;5066111;28;19963;-81
2020/12/24 03:17:49;;;;;;;;;;;8.80;99.90;;;;;;5066520;28;19913;-81
2020/12/24 03:20:15;;;;;;;;;;;8.80;99.90;;;;;;5058256;28;19916;-81
2020/12/24 03:22:40;;;;;;;;;;;8.80;99.90;;;;;;5058798;28;20302;-80
2020/12/24 03:25:06;;;;;;;;;;;8.80;99.90;;;;;;5057064;28;19919;-81
2020/12/24 03:27:31;;;;;;;;;;;8.80;99.90;;;;;;5059391;28;19963;-81
2020/12/24 03:29:57;;;;;;;;;;;8.80;99.90;;;;;;5040815;28;20011;-81
2020/12/24 03:32:22;;;;;;;;;;;8.80;99.90;;;;;;5059885;28;19909;-81
2020/12/24 03:34:48;;;;;;;;;;;8.80;99.90;;;;;;5076479;28;19909;-81
2020/12/24 03:37:13;;;;;;;;;;;8.80;99.90;;;;;;5058381;28;19913;-81
2020/12/24 03:39:39;;;;;;;;;;;8.80;99.90;;;;;;5064274;28;19952;-81
2020/12/24 03:42:04;;;;;;;;;;;8.80;99.90;;;;;;5059109;28;24127;-81
2020/12/24 03:44:30;;;;;;;;;;;8.80;99.90;;;;;;5058356;28;19920;-81
2020/12/24 03:46:55;;;;;;;;;;;8.90;99.90;;;;;;5076679;28;20507;-81
2020/12/24 03:49:20;;;;;;;;;;;8.80;99.90;;;;;;5066660;28;19926;-80
2020/12/24 03:51:46;;;;;;;;;;;8.80;99.90;;;;;;5059664;28;19913;-81
2020/12/24 03:54:11;;;;;;;;;;;8.80;99.90;;;;;;5045568;28;19916;-80
2020/12/24 03:56:37;;;;;;;;;;;8.80;99.90;;;;;;5091206;28;19966;-79
2020/12/24 03:59:02;;;;;;;;;;;8.80;99.90;;;;;;5080944;28;19913;-81
2020/12/24 04:01:28;;;;;;;;;;;8.80;99.90;;;;;;5067474;28;19943;-81
2020/12/24 04:03:53;;;;;;;;;;;8.80;99.90;;;;;;5057840;28;19913;-80
2020/12/24 04:06:19;;;;;;;;;;;8.80;99.90;;;;;;5056278;28;19962;-81
2020/12/24 04:08:44;;;;;;;;;;;8.80;99.90;;;;;;5056102;28;19920;-81
2020/12/24 04:11:09;;;;;;;;;;;8.80;99.90;;;;;;5068084;28;19973;-80
2020/12/24 04:13:35;;;;;;;;;;;8.80;99.90;;;;;;5062061;28;19920;-81
2020/12/24 04:16:00;;;;;;;;;;;8.80;99.90;;;;;;5045474;28;20019;-81
2020/12/24 04:18:26;;;;;;;;;;;8.80;99.90;;;;;;5056851;28;20289;-80
2020/12/24 04:20:51;;;;;;;;;;;8.80;99.90;;;;;;5069565;28;19916;-81
2020/12/24 04:23:17;;;;;;;;;;;8.80;99.90;;;;;;5043138;28;19920;-81
2020/12/24 04:25:42;;;;;;;;;;;8.80;99.90;;;;;;5057843;28;19920;-79
2020/12/24 04:28:08;;;;;;;;;;;8.80;99.90;;;;;;5064497;28;19917;-81
2020/12/24 04:30:33;;;;;;;;;;;8.80;99.90;;;;;;5059300;28;20440;-81
2020/12/24 04:32:59;;;;;;;;;;;8.80;99.90;;;;;;5069371;28;19920;-81
2020/12/24 04:35:24;;;;;;;;;;;8.80;99.90;;;;;;5077302;28;19958;-81
2020/12/24 04:37:50;;;;;;;;;;;8.80;99.90;;;;;;5053646;28;19920;-81
2020/12/24 04:40:16;;;;;;;;;;;8.80;99.90;;;;;;5078634;28;19912;-80
2020/12/24 04:42:41;;;;;;;;;;;8.70;99.90;;;;;;5063926;28;19986;-81
2020/12/24 04:45:07;;;;;;;;;;;8.70;99.90;;;;;;5078146;28;19909;-79
2020/12/24 04:47:33;;;;;;;;;;;8.70;99.90;;;;;;5078447;28;20002;-81
2020/12/24 04:49:59;;;;;;;;;;;8.70;99.90;;;;;;5060985;28;20332;-81
2020/12/24 04:52:25;;;;;;;;;;;8.70;99.90;;;;;;5060793;28;19919;-81
2020/12/24 04:54:51;;;;;;;;;;;8.70;99.90;;;;;;5063153;28;19909;-79
2020/12/24 04:57:17;;;;;;;;;;;8.70;99.90;;;;;;5075376;28;20329;-81
2020/12/24 04:59:44;;;;;;;;;;;8.60;99.90;;;;;;5077889;28;20007;-80
2020/12/24 05:02:10;;;;;;;;;;;8.70;99.90;;;;;;5063126;28;19916;-80
2020/12/24 05:04:35;;;;;;;;;;;8.60;99.90;;;;;;5047105;28;19909;-80
2020/12/24 05:07:01;;;;;;;;;;;8.60;99.90;;;;;;5049380;28;19923;-81
2020/12/24 05:09:27;;;;;;;;;;;8.60;99.90;;;;;;5062616;28;19934;-79
2020/12/24 05:11:52;;;;;;;;;;;8.60;99.90;;;;;;5077687;28;19916;-81
2020/12/24 05:14:22;;;;;;;;;;;8.60;99.90;;;;;;5060202;28;19913;-81
2020/12/24 05:17:07;;;;;;;;;;;8.50;99.90;;;;;;5060797;28;19913;-80
2020/12/24 05:19:33;;;;;;;;;;;8.50;99.90;;;;;;5059164;28;20016;-81
2020/12/24 05:22:09;;;;;;;;;;;8.50;99.90;;;;;;5060586;28;19917;-81
2020/12/24 05:24:34;;;;;;;;;;;8.50;99.90;;;;;;5080370;28;19908;-80
2020/12/24 05:27:08;;;;;;;;;;;8.40;99.90;;;;;;5074008;28;19913;-81
2020/12/24 05:29:37;;;;;;;;;;;8.40;99.90;;;;;;5069440;28;19913;-81
2020/12/24 05:32:03;;;;;;;;;;;8.30;99.90;;;;;;5063939;28;19913;-80
2020/12/24 05:34:28;;;;;;;;;;;8.30;99.90;;;;;;5080450;28;20043;-81
2020/12/24 05:37:08;;;;;;;;;;;8.20;99.90;;;;;;5066207;28;20379;-81
2020/12/24 05:39:33;;;;;;;;;;;8.20;99.90;;;;;;5077435;28;20365;-80
2020/12/24 05:42:02;;;;;;;;;;;8.20;99.90;;;;;;5079230;28;19924;-81
2020/12/24 05:44:27;;;;;;;;;;;8.20;99.90;;;;;;5061511;28;19913;-81
2020/12/24 05:46:53;;;;;;;;;;;8.20;99.90;;;;;;5075468;28;19947;-81
2020/12/24 05:49:19;;;;;;;;;;;8.20;99.90;;;;;;5065674;28;19917;-81
2020/12/24 05:51:48;;;;;;;;;;;8.20;99.90;;;;;;5067791;28;19913;-81
2020/12/24 05:54:15;;;;;;;;;;;8.20;99.90;;;;;;5066566;28;19978;-81
2020/12/24 05:56:41;;;;;;;;;;;8.20;99.90;;;;;;5059864;28;19932;-81
2020/12/24 05:59:08;;;;;;;;;;;8.20;99.90;;;;;;5069197;28;19912;-81
2020/12/24 06:01:39;;;;;;;;;;;8.20;99.90;;;;;;5080373;28;20364;-80
2020/12/24 06:04:09;;;;;;;;;;;8.20;99.90;;;;;;5045320;28;19914;-81
2020/12/24 06:06:47;;;;;;;;;;;8.20;99.90;;;;;;5074495;22;19988;-82
2020/12/24 06:09:13;;;;;;;;;;;8.20;99.90;;;;;;5016874;28;19920;-83
2020/12/24 06:11:46;;;;;;;;;;;8.20;99.90;;;;;;5031578;28;20477;-85
2020/12/24 06:14:13;;;;;;;;;;;8.20;99.90;;;;;;5017502;28;19910;-84
2020/12/24 06:16:39;;;;;;;;;;;8.20;99.90;;;;;;5018936;28;19913;-84
2020/12/24 06:19:05;;;;;;;;;;;8.20;99.90;;;;;;5035393;28;19922;-86
2020/12/24 06:21:33;;;;;;;;;;;8.30;99.90;;;;;;5019012;28;20400;-86
2020/12/24 06:23:59;;;;;;;;;;;8.30;99.90;;;;;;5018586;28;19916;-84
2020/12/24 06:26:32;;;;;;;;;;;8.30;99.90;;;;;;5020967;28;19913;-85
2020/12/24 06:29:02;;;;;;;;;;;8.30;99.90;;;;;;5019143;28;19945;-85
2020/12/24 06:31:28;;;;;;;;;;;8.30;99.90;;;;;;5018892;28;19913;-86
2020/12/24 06:33:56;;;;;;;;;;;8.30;99.90;;;;;;5018981;28;20393;-85
2020/12/24 06:36:30;;;;;;;;;;;8.30;99.90;;;;;;5018405;28;19921;-84
2020/12/24 06:38:55;;;;;;;;;;;8.30;99.90;;;;;;5016977;28;19909;-85
2020/12/24 06:41:41;;;;;;;;;;;8.30;99.90;;;;;;5014511;28;19918;-85
2020/12/24 06:44:08;;;;;;;;;;;8.30;99.90;;;;;;5013428;28;19910;-85
2020/12/24 06:46:52;;;;;;;;;;;8.30;99.90;;;;;;5017802;28;19913;-85
2020/12/24 06:49:27;;;;;;;;;;;8.30;99.90;;;;;;5020488;28;20379;-85
2020/12/24 06:51:53;;;;;;;;;;;8.30;99.90;;;;;;5016595;28;19910;-85
2020/12/24 06:54:25;;;;;;;;;;;8.30;99.90;;;;;;5015961;28;20004;-84
2020/12/24 06:57:11;;;;;;;;;;;8.30;99.90;;;;;;5015735;28;19967;-85
2020/12/24 06:59:36;;;;;;;;;;;8.30;99.90;;;;;;5011668;28;20296;-84
2020/12/24 07:02:02;;;;;;;;;;;8.30;99.90;;;;;;5016101;28;20012;-85
2020/12/24 07:04:38;;;;;;;;;;;8.30;99.90;;;;;;5016496;28;19916;-85
2020/12/24 07:07:04;;;;;;;;;;;8.30;99.90;;;;;;5018493;28;19960;-85
2020/12/24 07:09:30;;;;;;;;;;;8.30;99.90;;;;;;5016812;28;19910;-85
2020/12/24 07:11:55;;;;;;;;;;;8.30;99.90;;;;;;5015676;28;19937;-85
2020/12/24 07:14:27;;;;;;;;;;;8.30;99.90;;;;;;5014248;28;20004;-85
2020/12/24 07:16:55;;;;;;;;;;;8.30;99.90;;;;;;5022262;28;19914;-85
2020/12/24 07:19:23;;;;;;;;;;;8.40;99.90;;;;;;5014187;28;20289;-86
2020/12/24 07:21:53;;;;;;;;;;;8.40;99.90;;;;;;5011835;28;20000;-86
2020/12/24 07:24:28;;;;;;;;;;;8.50;99.90;;;;;;5013709;28;19932;-86
2020/12/24 07:26:55;;;;;;;;;;;8.50;99.90;;;;;;5028117;28;20000;-85
2020/12/24 07:29:21;;;;;;;;;;;8.50;99.90;;;;;;5012558;28;19914;-86
2020/12/24 07:31:47;;;;;;;;;;;8.50;99.90;;;;;;5011322;28;20408;-86
2020/12/24 07:34:12;;;;;;;;;;;8.50;99.90;;;;;;5012249;28;19913;-86
2020/12/24 07:36:38;;;;;;;;;;;8.50;99.90;;;;;;5008750;28;20301;-86
2020/12/24 07:39:09;;;;;;;;;;;8.50;99.90;;;;;;5013643;28;20565;-85
2020/12/24 07:41:35;;;;;;;;;;;8.50;99.90;;;;;;5002435;28;20377;-84
2020/12/24 07:44:21;;;;;;;;;;;8.50;99.90;;;;;;5013590;28;19974;-87
2020/12/24 07:46:48;;;;;;;;;;;8.50;99.90;;;;;;5012161;28;19926;-85
2020/12/24 07:49:14;;;;;;;;;;;8.50;99.90;;;;;;5011583;28;20011;-85
2020/12/24 07:51:40;;;;;;;;;;;8.60;99.90;;;;;;5010769;28;19978;-86
2020/12/24 07:54:05;;;;;;;;;;;8.60;99.90;;;;;;5012363;28;20266;-86
2020/12/24 07:56:31;;;;;;;;;;;8.60;99.90;;;;;;5025772;28;19992;-86
2020/12/24 07:59:04;;;;;;;;;;;8.60;99.90;;;;;;4994319;28;20285;-85
2020/12/24 08:01:32;;;;;;;;;;;8.70;99.90;;;;;;5004325;28;19932;-85
2020/12/24 08:04:03;;;;;;;;;;;8.70;99.90;;;;;;5012198;28;20393;-86
2020/12/24 08:06:28;;;;;;;;;;;8.70;99.90;;;;;;5026417;28;19928;-87
2020/12/24 08:09:14;;;;;;;;;;;8.80;99.90;;;;;;5011622;28;20364;-86
2020/12/24 08:11:43;;;;;;;;;;;8.80;99.90;;;;;;5012120;28;19952;-86
2020/12/24 08:14:09;;;;;;;;;;;8.80;99.90;;;;;;5012339;28;19914;-87
2020/12/24 08:16:36;;;;;;;;;;;8.80;99.90;;;;;;5012353;28;19920;-86
2020/12/24 08:19:12;;;;;;;;;;;8.90;99.90;;;;;;5011064;28;20362;-86
2020/12/24 08:21:42;;;;;;;;;;;8.90;99.90;;;;;;5011699;28;19921;-86
2020/12/24 08:24:09;;;;;;;;;;;8.90;99.90;;;;;;5010279;28;20131;-86
2020/12/24 08:26:35;;;;;;;;;;;8.90;99.90;;;;;;5011903;28;20267;-86
2020/12/24 08:29:10;;;;;;;;;;;8.90;99.90;;;;;;5004258;28;20403;-86
2020/12/24 08:31:39;;;;;;;;;;;8.80;99.90;;;;;;5012917;28;20421;-86
2020/12/24 08:34:09;;;;;;;;;;;8.80;99.90;;;;;;5010442;28;19963;-86
2020/12/24 08:36:41;;;;;;;;;;;8.80;99.90;;;;;;5011644;28;19920;-86
2020/12/24 08:39:08;;;;;;;;;;;8.80;99.90;;;;;;5011392;28;19917;-86
2020/12/24 08:41:39;;;;;;;;;;;8.80;99.90;;;;;;5010458;28;19917;-85
2020/12/24 08:44:05;;;;;;;;;;;8.80;99.90;;;;;;5010291;28;19968;-85
2020/12/24 08:46:33;;;;;;;;;;;8.90;99.90;;;;;;5011656;28;19921;-86
2020/12/24 08:49:17;;;;;;;;;;;8.80;99.90;;;;;;5010988;28;19914;-85
2020/12/24 08:51:43;;;;;;;;;;;8.60;99.90;;;;;;5012235;28;19913;-86
2020/12/24 08:54:14;;;;;;;;;;;8.50;99.90;;;;;;5007053;28;19937;-85
2020/12/24 08:56:40;;;;;;;;;;;8.40;99.90;;;;;;5007163;28;20000;-86
2020/12/24 08:59:07;;;;;;;;;;;8.30;99.90;;;;;;5008464;28;19913;-85
2020/12/24 09:01:37;;;;;;;;;;;8.20;99.90;;;;;;5011246;28;20393;-86
2020/12/24 09:04:09;;;;;;;;;;;8.20;99.90;;;;;;5010258;28;19957;-86
2020/12/24 09:06:34;;;;;;;;;;;8.10;99.90;;;;;;5015480;28;19969;-85
2020/12/24 09:09:00;;;;;;;;;;;8.10;99.90;;;;;;5014102;28;19963;-84
2020/12/24 09:11:25;;;;;;;;;;;8.10;99.90;;;;;;5015638;28;19909;-85
2020/12/24 09:13:58;;;;;;;;;;;8.00;99.90;;;;;;5007509;28;19917;-84
2020/12/24 09:16:23;;;;;;;;;;;8.00;99.90;;;;;;5008951;28;20318;-85
2020/12/24 09:18:59;;;;;;;;;;;8.00;99.90;;;;;;4991128;28;19960;-85
2020/12/24 09:21:24;;;;;;;;;;;7.90;99.90;;;;;;5013428;28;19917;-85
2020/12/24 09:23:50;;;;;;;;;;;7.80;99.90;;;;;;5023834;28;20301;-85
2020/12/24 09:26:15;;;;;;;;;;;7.70;99.90;;;;;;5020141;28;19925;-84
2020/12/24 09:28:41;;;;;;;;;;;7.70;99.90;;;;;;5003599;28;19920;-84
2020/12/24 09:31:06;;;;;;;;;;;7.70;99.90;;;;;;5017689;28;19953;-85
2020/12/24 09:33:32;;;;;;;;;;;7.70;99.90;;;;;;5011782;28;20328;-85
2020/12/24 09:35:57;;;;;;;;;;;7.70;99.90;;;;;;5030954;28;19914;-85
2020/12/24 09:38:23;;;;;;;;;;;7.70;99.90;;;;;;5012854;28;19921;-85
2020/12/24 09:40:48;;;;;;;;;;;7.70;99.90;;;;;;5005975;28;19918;-85
2020/12/24 09:43:14;;;;;;;;;;;7.70;99.90;;;;;;5030692;28;19914;-85
2020/12/24 09:45:39;;;;;;;;;;;7.60;99.90;;;;;;5020750;28;19918;-85
2020/12/24 09:48:05;;;;;;;;;;;7.60;99.90;;;;;;5020757;28;19945;-85
2020/12/24 09:50:31;;;;;;;;;;;7.60;99.90;;;;;;5015838;28;19917;-84
2020/12/24 09:52:56;;;;;;;;;;;7.60;99.90;;;;;;5019542;28;19963;-84
2020/12/24 09:55:22;;;;;;;;;;;7.60;99.90;;;;;;5015693;28;19956;-83
2020/12/24 09:57:47;;;;;;;;;;;7.50;99.90;;;;;;5020887;28;20357;-83
2020/12/24 10:00:13;;;;;;;;;;;7.40;99.90;;;;;;5018560;28;20268;-83
2020/12/24 10:02:38;;;;;;;;;;;7.40;99.90;;;;;;5016680;28;19913;-84
2020/12/24 10:05:05;;;;;;;;;;;7.30;99.90;;;;;;5021148;28;19909;-83
2020/12/24 10:07:30;;;;;;;;;;;7.30;99.90;;;;;;5015890;28;19913;-84
2020/12/24 10:09:56;;;;;;;;;;;7.30;99.90;;;;;;5004738;28;19948;-84
2020/12/24 10:12:22;;;;;;;;;;;7.30;99.90;;;;;;5019427;28;19905;-84
2020/12/24 10:14:48;;;;;;;;;;;7.30;99.90;;;;;;5017673;28;19909;-84
2020/12/24 10:17:14;;;;;;;;;;;7.30;99.90;;;;;;5019810;28;19912;-84
2020/12/24 10:19:43;;;;;;;;;;;7.40;99.90;;;;;;5012203;28;20433;-84
2020/12/24 10:22:08;;;;;;;;;;;7.40;99.90;;;;;;5017919;28;19920;-84
2020/12/24 10:24:34;;;;;;;;;;;7.50;99.90;;;;;;5019198;28;19909;-84
2020/12/24 10:26:59;;;;;;;;;;;7.50;99.90;;;;;;5018392;28;19914;-84
2020/12/24 10:29:25;;;;;;;;;;;7.50;99.90;;;;;;5019838;28;19905;-84
2020/12/24 10:31:50;;;;;;;;;;;7.60;99.90;;;;;;5018731;28;19913;-84
2020/12/24 10:34:16;;;;;;;;;;;7.70;99.90;;;;;;5018200;28;20334;-84
2020/12/24 10:36:41;;;;;;;;;;;7.70;99.90;;;;;;5018350;28;19913;-84
2020/12/24 10:39:09;;;;;;;;;;;7.80;99.90;;;;;;5018742;28;19936;-84
2020/12/24 10:41:35;;;;;;;;;;;7.80;99.90;;;;;;5018853;28;19917;-85
2020/12/24 10:44:00;;;;;;;;;;;7.90;99.90;;;;;;5016661;28;19909;-84
2020/12/24 10:46:26;;;;;;;;;;;8.00;99.90;;;;;;5018044;28;19909;-84
2020/12/24 10:48:51;;;;;;;;;;;8.00;99.90;;;;;;5007621;28;19917;-85
2020/12/24 10:51:17;;;;;;;;;;;8.00;99.90;;;;;;5018533;28;19906;-85
2020/12/24 10:53:43;;;;;;;;;;;8.00;99.90;;;;;;5017802;28;20443;-83
2020/12/24 10:56:12;;;;;;;;;;;8.00;99.90;;;;;;5018212;28;19949;-85
2020/12/24 10:58:38;;;;;;;;;;;8.00;99.90;;;;;;5017737;28;19920;-84
2020/12/24 11:01:03;;;;;;;;;;;8.00;99.90;;;;;;5018611;28;19957;-83
2020/12/24 11:03:29;;;;;;;;;;;7.90;99.90;;;;;;5009778;28;20040;-83
2020/12/24 11:05:55;;;;;;;;;;;7.90;99.90;;;;;;5012704;28;19920;-84
2020/12/24 11:08:20;;;;;;;;;;;7.80;99.90;;;;;;5015579;28;19925;-82
2020/12/24 11:10:46;;;;;;;;;;;7.80;99.90;;;;;;5011866;28;19923;-84
2020/12/24 11:13:11;;;;;;;;;;;7.70;99.90;;;;;;5021269;28;19910;-84
2020/12/24 11:15:43;;;;;;;;;;;7.70;99.90;;;;;;5019878;28;20467;-84
2020/12/24 11:18:09;;;;;;;;;;;7.60;99.90;;;;;;5016376;28;19983;-84
2020/12/24 11:20:34;;;;;;;;;;;7.60;99.90;;;;;;5011732;28;19913;-84
2020/12/24 11:23:00;;;;;;;;;;;7.60;99.90;;;;;;5017835;28;19917;-83
2020/12/24 11:25:25;;;;;;;;;;;7.60;99.90;;;;;;5015077;28;20385;-83
2020/12/24 11:27:50;;;;;;;;;;;7.50;99.90;;;;;;5016700;28;19944;-84
2020/12/24 11:30:16;;;;;;;;;;;7.50;99.90;;;;;;5018213;28;19924;-83
2020/12/24 11:32:41;;;;;;;;;;;7.50;99.90;;;;;;5017520;28;19953;-83
2020/12/24 11:35:07;;;;;;;;;;;7.60;99.90;;;;;;5014078;28;20377;-83
2020/12/24 11:37:41;;;;;;;;;;;7.60;99.90;;;;;;5013439;28;19929;-83
2020/12/24 11:40:30;;;;;;;;;;;7.60;99.90;;;;;;5015591;28;19921;-84
2020/12/24 11:42:55;;;;;;;;;;;7.50;99.90;;;;;;5013450;28;19964;-84
2020/12/24 11:45:21;;;;;;;;;;;7.50;99.90;;;;;;5015379;28;20266;-84
2020/12/24 11:47:46;;;;;;;;;;;7.50;99.90;;;;;;5022039;28;19913;-84
2020/12/24 11:50:12;;;;;;;;;;;7.50;99.90;;;;;;5032631;28;19936;-83
2020/12/24 11:52:38;;;;;;;;;;;7.40;99.90;;;;;;5012833;28;19913;-83
2020/12/24 11:55:04;;;;;;;;;;;7.40;99.90;;;;;;5015637;28;19932;-83
2020/12/24 11:57:30;;;;;;;;;;;7.40;99.90;;;;;;5012230;28;19913;-83
2020/12/24 11:59:55;;;;;;;;;;;7.40;99.90;;;;;;5030167;28;20009;-84
2020/12/24 12:02:21;;;;;;;;;;;7.40;99.90;;;;;;5032864;28;20003;-84
2020/12/24 12:04:46;;;;;;;;;;;7.40;99.90;;;;;;5016204;28;19913;-84
2020/12/24 12:07:11;;;;;;;;;;;7.30;99.90;;;;;;5014577;28;19924;-84
2020/12/24 12:09:37;;;;;;;;;;;7.30;99.90;;;;;;5079639;22;19944;-82
2020/12/24 12:12:02;;;;;;;;;;;7.30;99.90;;;;;;5031845;28;19913;-82
2020/12/24 12:14:28;;;;;;;;;;;7.20;99.90;;;;;;5036851;28;19913;-82
2020/12/24 12:16:54;;;;;;;;;;;7.20;99.90;;;;;;5033262;28;19921;-81
2020/12/24 12:19:19;;;;;;;;;;;7.20;99.90;;;;;;5035192;28;19920;-81
2020/12/24 12:21:45;;;;;;;;;;;7.30;99.90;;;;;;5036880;28;19917;-82
2020/12/24 12:24:10;;;;;;;;;;;7.30;99.90;;;;;;5035678;28;19919;-82
2020/12/24 12:26:36;;;;;;;;;;;7.40;99.90;;;;;;5034138;28;19963;-80
2020/12/24 12:29:01;;;;;;;;;;;7.40;99.90;;;;;;5050218;28;19921;-83
2020/12/24 12:31:27;;;;;;;;;;;7.40;99.90;;;;;;5035555;28;19917;-81
2020/12/24 12:33:53;;;;;;;;;;;7.40;99.90;;;;;;5029448;28;19948;-82
2020/12/24 12:36:21;;;;;;;;;;;7.40;99.90;;;;;;5034712;28;20374;-81
2020/12/24 12:38:47;;;;;;;;;;;7.40;99.90;;;;;;5035301;28;19939;-81
2020/12/24 12:41:13;;;;;;;;;;;7.40;99.90;;;;;;5034516;28;19923;-81
2020/12/24 12:43:39;;;;;;;;;;;7.40;99.90;;;;;;5035969;28;20340;-81
2020/12/24 12:46:05;;;;;;;;;;;7.30;99.90;;;;;;5031086;28;19914;-82
2020/12/24 12:48:30;;;;;;;;;;;7.30;99.90;;;;;;5032571;28;19920;-82
2020/12/24 12:50:56;;;;;;;;;;;7.20;99.90;;;;;;5028797;28;19917;-81
2020/12/24 12:53:21;;;;;;;;;;;7.10;99.90;;;;;;5033806;28;19981;-80
2020/12/24 12:55:46;;;;;;;;;;;7.10;99.90;;;;;;5029598;28;20392;-80
2020/12/24 12:58:12;;;;;;;;;;;7.00;99.90;;;;;;5019748;28;19948;-80
2020/12/24 13:00:37;;;;;;;;;;;7.00;99.90;;;;;;5039761;28;20424;-80
2020/12/24 13:03:03;;;;;;;;;;;6.90;99.90;;;;;;5038974;28;19948;-81
2020/12/24 13:05:31;;;;;;;;;;;6.90;99.90;;;;;;5046350;28;19913;-81
2020/12/24 13:07:56;;;;;;;;;;;6.90;99.90;;;;;;5036859;28;19917;-81
2020/12/24 13:10:22;;;;;;;;;;;6.90;99.90;;;;;;5040265;28;19983;-81
2020/12/24 13:12:47;;;;;;;;;;;6.90;99.90;;;;;;5040778;28;19920;-81
2020/12/24 13:15:13;;;;;;;;;;;6.90;99.90;;;;;;5041207;28;19913;-81
2020/12/24 13:17:38;;;;;;;;;;;6.90;99.90;;;;;;5041149;28;19910;-81
2020/12/24 13:20:04;;;;;;;;;;;6.90;99.90;;;;;;5042972;28;19913;-82
2020/12/24 13:22:29;;;;;;;;;;;6.90;99.90;;;;;;5041063;28;19957;-82
2020/12/24 13:24:55;;;;;;;;;;;6.90;99.90;;;;;;5047472;28;19975;-81
2020/12/24 13:27:20;;;;;;;;;;;6.90;99.90;;;;;;5040859;28;19913;-81
2020/12/24 13:29:45;;;;;;;;;;;6.90;99.90;;;;;;5039839;28;19996;-82
2020/12/24 13:32:11;;;;;;;;;;;6.90;99.90;;;;;;5041145;28;20297;-81
2020/12/24 13:34:36;;;;;;;;;;;6.90;99.90;;;;;;5039381;28;19963;-81
2020/12/24 13:37:02;;;;;;;;;;;6.90;99.90;;;;;;5038993;28;19920;-82
2020/12/24 13:39:28;;;;;;;;;;;6.80;99.90;;;;;;5041100;28;19913;-81
2020/12/24 13:41:53;;;;;;;;;;;6.80;99.90;;;;;;5034608;28;19925;-81
2020/12/24 13:44:19;;;;;;;;;;;6.80;99.90;;;;;;5040200;28;19910;-81
2020/12/24 13:46:48;;;;;;;;;;;6.80;99.90;;;;;;5038087;28;19913;-81
2020/12/24 13:49:13;;;;;;;;;;;6.80;99.90;;;;;;5039165;28;19909;-81
2020/12/24 13:51:39;;;;;;;;;;;6.80;99.90;;;;;;5039698;28;19909;-80
2020/12/24 13:54:04;;;;;;;;;;;6.80;99.90;;;;;;5039373;28;19920;-81
2020/12/24 13:56:30;;;;;;;;;;;6.70;99.90;;;;;;5039480;28;19913;-81
2020/12/24 13:58:55;;;;;;;;;;;6.80;99.90;;;;;;5031799;28;19952;-80
2020/12/24 14:01:20;;;;;;;;;;;6.70;99.90;;;;;;5039295;28;19920;-81
2020/12/24 14:03:46;;;;;;;;;;;6.70;99.90;;;;;;5038988;28;19917;-81
2020/12/24 14:06:12;;;;;;;;;;;6.70;99.90;;;;;;5054438;28;19913;-80
2020/12/24 14:08:38;;;;;;;;;;;6.70;99.90;;;;;;5053865;28;19917;-80
2020/12/24 14:11:04;;;;;;;;;;;6.80;99.90;;;;;;5047253;28;19913;-81
2020/12/24 14:13:29;;;;;;;;;;;6.90;99.90;;;;;;5056368;28;19988;-81
2020/12/24 14:16:01;;;;;;;;;;;6.90;99.90;;;;;;5042989;28;19913;-81
2020/12/24 14:18:28;;;;;;;;;;;6.90;99.90;;;;;;5036642;28;19921;-81
2020/12/24 14:20:53;;;;;;;;;;;6.90;99.90;;;;;;5031179;28;19917;-81
2020/12/24 14:23:22;;;;;;;;;;;6.90;99.90;;;;;;5034829;28;19920;-82
2020/12/24 14:25:47;;;;;;;;;;;6.90;99.90;;;;;;5038471;28;19917;-81
2020/12/24 14:28:13;;;;;;;;;;;6.90;99.90;;;;;;5036886;28;19920;-81